createdAt,value
2023-02-11T00:01:08.027Z,71.66
2023-02-11T00:03:36.212Z,71.43
2023-02-11T00:06:06.683Z,71.37
2023-02-11T00:08:36.390Z,72.01
2023-02-11T00:11:04.818Z,72.17
2023-02-11T00:13:32.814Z,72.28
2023-02-11T00:16:00.936Z,72.36
2023-02-11T00:18:29.196Z,72.42
2023-02-11T00:20:57.212Z,72.29
2023-02-11T00:23:25.181Z,72.79
2023-02-11T00:25:54.661Z,72.67
2023-02-11T00:28:22.634Z,73.13
2023-02-11T00:30:55.952Z,72.99
2023-02-11T00:33:24.070Z,73.25
2023-02-11T00:35:52.772Z,73.23
2023-02-11T00:38:20.975Z,73.28
2023-02-11T00:40:49.627Z,73.37
2023-02-11T00:43:19.368Z,73.16
2023-02-11T00:45:47.446Z,73.45
2023-02-11T00:48:15.753Z,74.21
2023-02-11T00:50:43.890Z,74.29
2023-02-11T00:53:12.153Z,74.15
2023-02-11T00:55:40.595Z,73.45
2023-02-11T00:58:08.666Z,74.09
2023-02-11T01:00:38.097Z,73.88
2023-02-11T01:03:07.493Z,74.06
2023-02-11T01:05:35.634Z,75.04
2023-02-11T01:08:04.061Z,74.51
2023-02-11T01:10:32.461Z,73.85
2023-02-11T01:13:01.793Z,73.45
2023-02-11T01:15:30.424Z,73.96
2023-02-11T01:18:00.169Z,74.23
2023-02-11T01:20:29.911Z,74.41
2023-02-11T01:22:58.282Z,74.58
2023-02-11T01:25:26.542Z,74.48
2023-02-11T01:27:55.098Z,74.92
2023-02-11T01:30:24.146Z,75.44
2023-02-11T01:32:52.516Z,75.11
2023-02-11T01:35:21.766Z,74.91
2023-02-11T01:37:49.956Z,75.01
2023-02-11T01:40:19.952Z,75.00
2023-02-11T01:42:50.898Z,75.35
2023-02-11T01:45:52.807Z,75.08
2023-02-11T01:48:25.810Z,75.83
2023-02-11T01:51:00.829Z,76.26
2023-02-11T01:53:48.483Z,75.90
2023-02-11T01:56:37.634Z,75.63
2023-02-11T01:59:12.745Z,75.63
2023-02-11T02:01:44.052Z,75.38
2023-02-11T02:04:13.515Z,75.31
2023-02-11T02:06:50.199Z,75.47
2023-02-11T02:09:23.280Z,76.14
2023-02-11T02:11:51.944Z,75.59
2023-02-11T02:14:20.412Z,75.66
2023-02-11T02:16:48.568Z,76.00
2023-02-11T02:19:55.177Z,75.82
2023-02-11T02:22:56.757Z,75.49
2023-02-11T02:25:41.780Z,75.55
2023-02-11T02:28:29.942Z,75.90
2023-02-11T02:31:20.530Z,75.44
2023-02-11T02:33:56.743Z,75.25
2023-02-11T02:36:33.054Z,75.58
2023-02-11T02:39:04.849Z,75.53
2023-02-11T02:41:35.375Z,75.15
2023-02-11T02:44:03.898Z,75.79
2023-02-11T02:46:34.079Z,75.69
2023-02-11T02:49:03.561Z,75.95
2023-02-11T02:51:56.794Z,75.90
2023-02-11T02:54:52.663Z,76.61
2023-02-11T02:57:31.848Z,76.54
2023-02-11T03:00:12.997Z,76.61
2023-02-11T03:02:47.872Z,76.60
2023-02-11T03:05:23.594Z,77.30
2023-02-11T03:07:58.648Z,77.25
2023-02-11T03:10:30.608Z,77.55
2023-02-11T03:13:00.843Z,78.37
2023-02-11T03:15:32.877Z,78.68
2023-02-11T03:18:04.335Z,78.70
2023-02-11T03:20:37.343Z,78.44
2023-02-11T03:23:09.272Z,77.67
2023-02-11T03:25:43.200Z,77.94
2023-02-11T03:28:16.941Z,77.96
2023-02-11T03:30:50.535Z,78.24
2023-02-11T03:33:22.867Z,78.55
2023-02-11T03:35:57.784Z,79.09
2023-02-11T03:38:30.664Z,78.98
2023-02-11T03:40:59.909Z,79.69
2023-02-11T03:43:34.170Z,79.56
2023-02-11T03:46:04.421Z,78.86
2023-02-11T03:48:36.325Z,78.92
2023-02-11T03:51:08.946Z,79.42
2023-02-11T03:53:39.710Z,79.54
2023-02-11T03:56:11.792Z,78.81
2023-02-11T03:58:39.775Z,78.67
2023-02-11T04:01:09.939Z,78.78
2023-02-11T04:03:38.281Z,79.17
2023-02-11T04:06:08.125Z,78.12
2023-02-11T04:08:36.366Z,78.01
2023-02-11T04:11:04.481Z,77.80
2023-02-11T04:13:32.640Z,78.00
2023-02-11T04:16:00.647Z,78.07
2023-02-11T04:18:28.679Z,78.47
2023-02-11T04:20:56.703Z,78.34
2023-02-11T04:23:26.251Z,78.95
2023-02-11T04:25:54.442Z,78.69
2023-02-11T04:28:22.651Z,78.96
2023-02-11T04:30:50.945Z,78.28
2023-02-11T04:33:18.965Z,78.94
2023-02-11T04:35:47.565Z,79.30
2023-02-11T04:38:15.825Z,79.38
2023-02-11T04:40:45.240Z,79.48
2023-02-11T04:43:13.324Z,79.34
2023-02-11T04:45:41.484Z,79.12
2023-02-11T04:48:09.483Z,79.21
2023-02-11T04:50:37.583Z,79.11
2023-02-11T04:53:05.657Z,79.68
2023-02-11T04:55:33.844Z,79.21
2023-02-11T04:58:03.841Z,79.77
2023-02-11T05:00:32.267Z,79.05
2023-02-11T05:03:00.476Z,78.86
2023-02-11T05:05:28.514Z,78.81
2023-02-11T05:07:56.735Z,78.67
2023-02-11T05:10:24.992Z,78.62
2023-02-11T05:12:55.416Z,78.79
2023-02-11T05:15:25.678Z,78.25
2023-02-11T05:17:54.579Z,78.45
2023-02-11T05:20:23.734Z,78.00
2023-02-11T05:22:52.551Z,77.94
2023-02-11T05:25:22.685Z,78.37
2023-02-11T05:27:50.806Z,78.75
2023-02-11T05:30:19.611Z,79.25
2023-02-11T05:32:49.051Z,78.80
2023-02-11T05:35:17.608Z,78.57
2023-02-11T05:37:46.740Z,78.36
2023-02-11T05:40:15.064Z,78.34
2023-02-11T05:42:43.566Z,78.23
2023-02-11T05:45:11.903Z,77.71
2023-02-11T05:47:39.804Z,77.63
2023-02-11T05:50:09.905Z,77.41
2023-02-11T05:52:38.032Z,77.70
2023-02-11T05:55:07.009Z,77.45
2023-02-11T05:57:34.905Z,77.00
2023-02-11T06:00:03.437Z,77.21
2023-02-11T06:02:41.044Z,76.90
2023-02-11T06:05:10.872Z,76.46
2023-02-11T06:07:39.031Z,77.28
2023-02-11T06:10:08.655Z,77.42
2023-02-11T06:12:38.038Z,77.00
2023-02-11T06:15:07.509Z,76.88
2023-02-11T06:17:36.725Z,76.59
2023-02-11T06:20:06.455Z,76.35
2023-02-11T06:22:35.834Z,75.94
2023-02-11T06:25:04.178Z,76.47
2023-02-11T06:27:32.396Z,76.62
2023-02-11T06:30:00.793Z,76.25
2023-02-11T06:32:46.068Z,76.70
2023-02-11T06:35:15.812Z,76.32
2023-02-11T06:37:45.763Z,76.58
2023-02-11T06:40:14.393Z,76.10
2023-02-11T06:42:42.750Z,76.88
2023-02-11T06:45:13.177Z,76.39
2023-02-11T06:47:42.171Z,76.64
2023-02-11T06:50:14.496Z,76.51
2023-02-11T06:52:43.162Z,76.75
2023-02-11T06:55:14.264Z,76.61
2023-02-11T06:57:42.851Z,76.14
2023-02-11T07:00:12.796Z,77.03
2023-02-11T07:02:41.251Z,76.50
2023-02-11T07:05:10.482Z,76.00
2023-02-11T07:07:39.325Z,77.18
2023-02-11T07:10:08.465Z,77.09
2023-02-11T07:12:37.977Z,76.88
2023-02-11T07:15:07.779Z,76.23
2023-02-11T07:17:36.417Z,76.28
2023-02-11T07:20:05.523Z,76.68
2023-02-11T07:22:35.262Z,75.83
2023-02-11T07:25:04.742Z,76.14
2023-02-11T07:27:33.166Z,76.11
2023-02-11T07:30:07.338Z,75.96
2023-02-11T07:32:35.730Z,75.58
2023-02-11T07:35:03.988Z,76.27
2023-02-11T07:37:32.020Z,76.23
2023-02-11T07:40:01.557Z,75.96
2023-02-11T07:42:29.917Z,75.79
2023-02-11T07:44:58.010Z,76.29
2023-02-11T07:47:28.269Z,76.55
2023-02-11T07:49:56.817Z,76.69
2023-02-11T07:52:25.264Z,76.74
2023-02-11T07:54:53.461Z,76.94
2023-02-11T07:57:21.551Z,76.59
2023-02-11T07:59:49.662Z,76.26
2023-02-11T08:02:18.202Z,76.52
2023-02-11T08:04:48.463Z,77.10
2023-02-11T08:07:17.596Z,77.51
2023-02-11T08:09:46.028Z,77.21
2023-02-11T08:12:14.575Z,77.12
2023-02-11T08:14:42.564Z,76.74
2023-02-11T08:17:10.588Z,76.04
2023-02-11T08:19:40.081Z,75.72
2023-02-11T08:22:09.846Z,75.79
2023-02-11T08:24:37.857Z,76.12
2023-02-11T08:27:05.805Z,75.63
2023-02-11T08:29:34.083Z,75.90
2023-02-11T08:32:02.949Z,74.63
2023-02-11T08:34:31.250Z,74.60
2023-02-11T08:36:59.326Z,74.29
2023-02-11T08:39:28.882Z,75.62
2023-02-11T08:41:58.003Z,75.61
2023-02-11T08:44:26.212Z,75.80
2023-02-11T08:46:54.767Z,75.81
2023-02-11T08:49:23.907Z,75.74
2023-02-11T08:51:52.004Z,75.48
2023-02-11T08:54:20.117Z,75.19
2023-02-11T08:56:53.188Z,75.51
2023-02-11T08:59:21.322Z,75.16
2023-02-11T09:01:49.927Z,75.12
2023-02-11T09:04:18.795Z,74.60
2023-02-11T09:06:48.960Z,74.21
2023-02-11T09:09:18.181Z,74.26
2023-02-11T09:11:48.176Z,74.07
2023-02-11T09:14:20.852Z,74.33
2023-02-11T09:16:49.898Z,74.19
2023-02-11T09:19:19.666Z,74.19
2023-02-11T09:21:48.721Z,74.04
2023-02-11T09:24:17.378Z,74.31
2023-02-11T09:26:45.891Z,74.27
2023-02-11T09:29:14.550Z,73.88
2023-02-11T09:31:44.384Z,74.47
2023-02-11T09:34:14.319Z,74.65
2023-02-11T09:36:43.541Z,74.48
2023-02-11T09:39:17.301Z,74.22
2023-02-11T09:42:15.661Z,74.56
2023-02-11T09:44:47.986Z,74.40
2023-02-11T09:47:37.315Z,74.85
2023-02-11T09:50:15.584Z,74.51
2023-02-11T09:52:53.368Z,74.71
2023-02-11T09:55:27.471Z,74.62
2023-02-11T09:57:58.214Z,74.44
2023-02-11T10:00:40.844Z,74.29
2023-02-11T10:03:46.655Z,73.88
2023-02-11T10:06:28.214Z,72.91
2023-02-11T10:09:07.942Z,73.78
2023-02-11T10:11:49.457Z,73.37
2023-02-11T10:14:36.430Z,73.90
2023-02-11T10:17:17.461Z,73.38
2023-02-11T10:20:05.614Z,72.73
2023-02-11T10:22:40.679Z,72.21
2023-02-11T10:25:21.922Z,72.87
2023-02-11T10:27:52.643Z,72.71
2023-02-11T10:30:30.191Z,72.74
2023-02-11T10:33:05.190Z,72.78
2023-02-11T10:35:35.845Z,72.65
2023-02-11T10:38:06.975Z,72.33
2023-02-11T10:40:35.841Z,71.96
2023-02-11T10:43:08.117Z,71.81
2023-02-11T10:45:40.997Z,72.03
2023-02-11T10:48:42.366Z,72.29
2023-02-11T10:51:20.787Z,71.26
2023-02-11T10:53:51.813Z,71.18
2023-02-11T10:56:27.844Z,71.46
2023-02-11T10:59:00.148Z,70.96
2023-02-11T11:01:46.534Z,71.01
2023-02-11T11:04:41.195Z,70.69
2023-02-11T11:07:23.699Z,70.99
2023-02-11T11:09:55.896Z,71.20
2023-02-11T11:12:48.125Z,71.20
2023-02-11T11:15:23.973Z,71.42
2023-02-11T11:18:20.907Z,70.62
2023-02-11T11:21:00.839Z,71.22
2023-02-11T11:23:32.226Z,71.11
2023-02-11T11:26:06.291Z,71.42
2023-02-11T11:28:41.037Z,70.99
2023-02-11T11:31:18.429Z,71.48
2023-02-11T11:33:49.210Z,70.91
2023-02-11T11:36:22.815Z,71.06
2023-02-11T11:38:54.781Z,70.42
2023-02-11T11:41:28.658Z,70.61
2023-02-11T11:43:58.210Z,70.17
2023-02-11T11:46:30.061Z,70.74
2023-02-11T11:49:17.668Z,70.60
2023-02-11T11:51:58.111Z,71.39
2023-02-11T11:54:30.501Z,71.48
2023-02-11T11:57:04.614Z,71.59
2023-02-11T11:59:34.317Z,71.16
2023-02-11T12:02:36.953Z,71.29
2023-02-11T12:05:13.101Z,70.48
2023-02-11T12:07:53.293Z,70.46
2023-02-11T12:10:46.909Z,69.96
2023-02-11T12:13:35.455Z,70.35
2023-02-11T12:16:17.393Z,70.15
2023-02-11T12:19:13.659Z,69.70
2023-02-11T12:21:52.117Z,69.50
2023-02-11T12:24:36.885Z,69.94
2023-02-11T12:27:14.500Z,69.42
2023-02-11T12:30:02.715Z,69.64
2023-02-11T12:32:39.748Z,70.08
2023-02-11T12:35:21.854Z,69.71
2023-02-11T12:38:09.894Z,69.67
2023-02-11T12:40:47.250Z,69.47
2023-02-11T12:43:22.746Z,69.70
2023-02-11T12:46:17.630Z,69.59
2023-02-11T12:49:07.543Z,69.88
2023-02-11T12:51:51.497Z,70.31
2023-02-11T12:54:28.880Z,69.96
2023-02-11T12:57:04.113Z,69.40
2023-02-11T12:59:46.632Z,69.41
2023-02-11T13:02:26.504Z,69.90
2023-02-11T13:04:59.250Z,69.68
2023-02-11T13:07:33.732Z,69.90
2023-02-11T13:10:08.940Z,70.42
2023-02-11T13:12:56.787Z,69.75
2023-02-11T13:15:27.879Z,69.31
2023-02-11T13:18:02.211Z,69.51
2023-02-11T13:20:41.558Z,69.16
2023-02-11T13:23:21.082Z,69.11
2023-02-11T13:25:56.873Z,69.04
2023-02-11T13:28:40.787Z,69.06
2023-02-11T13:31:13.400Z,68.99
2023-02-11T13:33:46.768Z,69.27
2023-02-11T13:36:28.124Z,68.97
2023-02-11T13:39:10.954Z,69.53
2023-02-11T13:41:51.577Z,69.35
2023-02-11T13:44:28.617Z,69.91
2023-02-11T13:47:05.500Z,69.95
2023-02-11T13:49:42.446Z,69.74
2023-02-11T13:52:29.209Z,69.06
2023-02-11T13:55:06.578Z,69.38
2023-02-11T13:57:43.896Z,69.49
2023-02-11T14:00:45.237Z,69.03
2023-02-11T14:03:48.705Z,69.14
2023-02-11T14:06:40.988Z,68.85
2023-02-11T14:09:39.944Z,69.31
2023-02-11T14:12:27.362Z,69.50
2023-02-11T14:15:38.336Z,69.46
2023-02-11T14:18:39.920Z,69.34
2023-02-11T14:21:16.278Z,69.13
2023-02-11T14:23:45.772Z,69.17
2023-02-11T14:26:35.078Z,69.62
2023-02-11T14:29:14.113Z,69.10
2023-02-11T14:31:49.244Z,68.74
2023-02-11T14:34:39.331Z,68.56
2023-02-11T14:37:18.314Z,68.64
2023-02-11T14:40:04.167Z,68.70
2023-02-11T14:42:32.453Z,68.75
2023-02-11T14:45:06.978Z,68.77
2023-02-11T14:47:42.049Z,68.51
2023-02-11T14:50:19.203Z,68.92
2023-02-11T14:52:49.828Z,68.89
2023-02-11T14:55:29.330Z,68.54
2023-02-11T14:58:15.458Z,69.40
2023-02-11T15:00:56.505Z,69.24
2023-02-11T15:03:34.838Z,69.04
2023-02-11T15:06:07.463Z,68.78
2023-02-11T15:08:39.316Z,68.88
2023-02-11T15:11:12.983Z,69.39
2023-02-11T15:13:48.083Z,68.96
2023-02-11T15:16:19.375Z,69.44
2023-02-11T15:18:51.783Z,69.72
2023-02-11T15:21:25.848Z,70.26
2023-02-11T15:24:00.698Z,70.34
2023-02-11T15:26:30.416Z,70.22
2023-02-11T15:28:59.420Z,70.61
2023-02-11T15:31:29.440Z,70.98
2023-02-11T15:34:08.850Z,70.85
2023-02-11T15:36:37.117Z,69.64
2023-02-11T15:39:20.940Z,69.95
2023-02-11T15:41:48.860Z,70.25
2023-02-11T15:44:31.149Z,69.63
2023-02-11T15:46:59.600Z,70.33
2023-02-11T15:49:28.327Z,69.86
2023-02-11T15:51:58.275Z,70.21
2023-02-11T15:54:32.057Z,70.91
2023-02-11T15:57:05.583Z,70.91
2023-02-11T15:59:38.181Z,70.23
2023-02-11T16:02:17.216Z,70.42
2023-02-11T16:04:52.370Z,70.72
2023-02-11T16:07:39.582Z,70.98
2023-02-11T16:10:24.610Z,70.79
2023-02-11T16:12:55.328Z,70.18
2023-02-11T16:15:46.404Z,69.49
2023-02-11T16:18:31.067Z,69.25
2023-02-11T16:21:07.056Z,69.60
2023-02-11T16:23:39.022Z,69.50
2023-02-11T16:26:14.128Z,69.24
2023-02-11T16:28:42.457Z,69.16
2023-02-11T16:31:11.965Z,69.08
2023-02-11T16:33:40.335Z,69.26
2023-02-11T16:36:14.254Z,68.57
2023-02-11T16:38:42.385Z,68.97
2023-02-11T16:41:12.995Z,69.71
2023-02-11T16:43:41.315Z,69.13
2023-02-11T16:46:10.217Z,69.74
2023-02-11T16:48:39.301Z,70.32
2023-02-11T16:51:09.861Z,69.51
2023-02-11T16:53:38.647Z,69.32
2023-02-11T16:56:07.203Z,69.26
2023-02-11T16:58:39.692Z,70.00
2023-02-11T17:01:10.175Z,70.04
2023-02-11T17:03:41.202Z,69.54
2023-02-11T17:06:11.998Z,70.46
2023-02-11T17:08:40.647Z,69.96
2023-02-11T17:11:10.395Z,69.44
2023-02-11T17:13:42.014Z,69.91
2023-02-11T17:16:18.824Z,69.55
2023-02-11T17:18:47.810Z,69.51
2023-02-11T17:21:17.089Z,69.08
2023-02-11T17:23:46.084Z,68.60
2023-02-11T17:26:15.211Z,68.89
2023-02-11T17:28:44.832Z,69.58
2023-02-11T17:31:13.428Z,69.06
2023-02-11T17:33:41.720Z,69.59
2023-02-11T17:36:12.262Z,69.77
2023-02-11T17:38:45.932Z,69.81
2023-02-11T17:41:13.992Z,69.86
2023-02-11T17:43:42.948Z,70.17
2023-02-11T17:46:14.465Z,70.07
2023-02-11T17:48:42.877Z,70.33
2023-02-11T17:51:23.091Z,70.75
2023-02-11T17:53:52.002Z,70.32
2023-02-11T17:56:20.402Z,70.19
2023-02-11T17:58:48.731Z,70.51
2023-02-11T18:01:18.314Z,70.19
2023-02-11T18:03:46.425Z,70.66
2023-02-11T18:06:15.651Z,70.47
2023-02-11T18:08:43.861Z,70.33
2023-02-11T18:11:15.175Z,70.26
2023-02-11T18:13:43.820Z,70.66
2023-02-11T18:16:15.924Z,70.23
2023-02-11T18:18:45.907Z,70.19
2023-02-11T18:21:16.860Z,70.11
2023-02-11T18:23:46.511Z,69.48
2023-02-11T18:26:16.512Z,70.26
2023-02-11T18:28:45.957Z,70.35
2023-02-11T18:31:15.726Z,69.61
2023-02-11T18:33:45.817Z,69.79
2023-02-11T18:36:15.715Z,70.19
2023-02-11T18:38:45.097Z,70.50
2023-02-11T18:41:13.499Z,70.05
2023-02-11T18:43:42.986Z,70.74
2023-02-11T18:46:12.719Z,70.56
2023-02-11T18:48:41.765Z,70.88
2023-02-11T18:51:12.458Z,71.96
2023-02-11T18:53:40.832Z,71.96
2023-02-11T18:56:09.776Z,71.36
2023-02-11T18:58:38.553Z,71.40
2023-02-11T19:01:12.714Z,71.60
2023-02-11T19:03:40.807Z,72.30
2023-02-11T19:06:17.972Z,72.02
2023-02-11T19:08:46.098Z,72.23
2023-02-11T19:11:16.087Z,71.84
2023-02-11T19:13:43.998Z,71.84
2023-02-11T19:16:14.863Z,72.96
2023-02-11T19:18:43.101Z,73.01
2023-02-11T19:21:14.407Z,72.96
2023-02-11T19:23:44.364Z,72.83
2023-02-11T19:26:15.123Z,71.98
2023-02-11T19:28:44.897Z,72.03
2023-02-11T19:31:13.049Z,72.10
2023-02-11T19:33:41.126Z,72.19
2023-02-11T19:36:11.884Z,72.64
2023-02-11T19:38:40.023Z,73.24
2023-02-11T19:41:12.365Z,73.24
2023-02-11T19:43:41.597Z,72.71
2023-02-11T19:46:10.059Z,72.03
2023-02-11T19:48:38.158Z,71.94
2023-02-11T19:51:13.115Z,71.61
2023-02-11T19:53:41.625Z,71.73
2023-02-11T19:56:12.672Z,71.90
2023-02-11T19:58:41.774Z,71.68
2023-02-11T20:01:11.575Z,71.27
2023-02-11T20:03:42.424Z,71.41
2023-02-11T20:06:14.103Z,71.40
2023-02-11T20:08:42.502Z,71.30
2023-02-11T20:11:14.257Z,71.16
2023-02-11T20:13:43.210Z,71.33
2023-02-11T20:16:13.831Z,70.50
2023-02-11T20:18:42.367Z,70.77
2023-02-11T20:21:11.361Z,70.52
2023-02-11T20:23:40.376Z,70.43
2023-02-11T20:26:09.704Z,70.11
2023-02-11T20:28:39.347Z,69.84
2023-02-11T20:31:08.068Z,70.05
2023-02-11T20:33:36.145Z,69.88
2023-02-11T20:36:06.552Z,69.86
2023-02-11T20:38:34.834Z,70.01
2023-02-11T20:41:04.632Z,69.82
2023-02-11T20:43:33.129Z,69.40
2023-02-11T20:46:05.955Z,69.32
2023-02-11T20:48:34.821Z,69.72
2023-02-11T20:51:07.412Z,69.49
2023-02-11T20:53:36.710Z,69.63
2023-02-11T20:56:06.653Z,70.02
2023-02-11T20:58:35.835Z,69.88
2023-02-11T21:01:10.125Z,69.43
2023-02-11T21:03:38.179Z,69.18
2023-02-11T21:06:07.065Z,69.18
2023-02-11T21:08:35.264Z,69.33
2023-02-11T21:11:03.822Z,69.36
2023-02-11T21:13:31.918Z,68.86
2023-02-11T21:16:00.332Z,69.27
2023-02-11T21:18:30.773Z,68.90
2023-02-11T21:21:00.185Z,69.69
2023-02-11T21:23:29.115Z,69.03
2023-02-11T21:25:57.941Z,68.53
2023-02-11T21:28:27.140Z,68.34
2023-02-11T21:30:57.334Z,68.57
2023-02-11T21:33:26.731Z,69.67
2023-02-11T21:35:57.465Z,70.00
2023-02-11T21:38:27.530Z,69.91
2023-02-11T21:40:55.939Z,70.39
2023-02-11T21:43:25.004Z,70.13
2023-02-11T21:45:53.755Z,70.98
2023-02-11T21:48:23.857Z,71.70
2023-02-11T21:50:52.303Z,71.30
2023-02-11T21:53:21.692Z,71.71
2023-02-11T21:55:51.346Z,71.86
2023-02-11T21:58:19.643Z,72.67
2023-02-11T22:00:47.838Z,72.39
2023-02-11T22:03:15.977Z,72.64
2023-02-11T22:05:44.216Z,72.75
2023-02-11T22:08:12.572Z,72.32
2023-02-11T22:10:42.634Z,73.11
2023-02-11T22:13:11.010Z,73.04
2023-02-11T22:15:40.248Z,72.53
2023-02-11T22:18:08.494Z,73.78
2023-02-11T22:20:36.795Z,74.64
2023-02-11T22:23:04.776Z,74.84
2023-02-11T22:25:32.868Z,74.89
2023-02-11T22:28:02.669Z,75.18
2023-02-11T22:30:31.353Z,75.14
2023-02-11T22:32:59.656Z,75.24
2023-02-11T22:35:27.793Z,74.69
2023-02-11T22:37:55.820Z,74.82
2023-02-11T22:40:25.615Z,74.56
2023-02-11T22:42:54.142Z,74.46
2023-02-11T22:45:24.330Z,74.81
2023-02-11T22:47:54.449Z,74.57
2023-02-11T22:50:22.953Z,74.04
2023-02-11T22:52:51.010Z,74.20
2023-02-11T22:55:19.375Z,74.47
2023-02-11T22:57:47.617Z,73.97
2023-02-11T23:00:17.245Z,74.22
2023-02-11T23:02:46.844Z,73.68
2023-02-11T23:05:15.339Z,73.67
2023-02-11T23:07:43.600Z,73.98
2023-02-11T23:10:12.161Z,73.10
2023-02-11T23:12:40.361Z,72.86
2023-02-11T23:15:09.175Z,73.18
2023-02-11T23:17:37.323Z,72.85
2023-02-11T23:20:07.930Z,72.95
2023-02-11T23:22:35.976Z,73.30
2023-02-11T23:25:04.006Z,73.27
2023-02-11T23:27:32.142Z,74.02
2023-02-11T23:30:00.336Z,73.55
2023-02-11T23:32:28.234Z,73.42
2023-02-11T23:34:56.608Z,73.70
2023-02-11T23:37:26.226Z,73.28
2023-02-11T23:39:54.483Z,73.14
2023-02-11T23:42:22.584Z,72.70
2023-02-11T23:44:50.536Z,72.99
2023-02-11T23:47:18.515Z,73.15
2023-02-11T23:49:46.518Z,73.29
2023-02-11T23:52:14.511Z,72.79
2023-02-11T23:54:45.612Z,73.17
2023-02-11T23:57:13.552Z,73.45
2023-02-11T23:59:43.158Z,72.66
